sensor_id;sensor_type;location;lat;lon;timestamp;temperature;humidity
68480;DHT22;55469;48.934;12.050;2023-04-03T00:00:41;9.60;89.60
68480;DHT22;55469;48.934;12.050;2023-04-03T00:03:07;9.60;89.70
68480;DHT22;55469;48.934;12.050;2023-04-03T00:05:33;9.60;90.00
68480;DHT22;55469;48.934;12.050;2023-04-03T00:07:59;9.60;90.00
68480;DHT22;55469;48.934;12.050;2023-04-03T00:10:27;9.60;89.80
68480;DHT22;55469;48.934;12.050;2023-04-03T00:12:53;9.60;89.80
68480;DHT22;55469;48.934;12.050;2023-04-03T00:15:19;9.50;89.80
68480;DHT22;55469;48.934;12.050;2023-04-03T00:17:45;9.50;90.20
68480;DHT22;55469;48.934;12.050;2023-04-03T00:20:11;9.50;90.20
68480;DHT22;55469;48.934;12.050;2023-04-03T00:22:37;9.50;90.20
68480;DHT22;55469;48.934;12.050;2023-04-03T00:25:03;9.50;90.20
68480;DHT22;55469;48.934;12.050;2023-04-03T00:27:29;9.50;90.20
68480;DHT22;55469;48.934;12.050;2023-04-03T00:29:55;9.50;90.30
68480;DHT22;55469;48.934;12.050;2023-04-03T00:32:21;9.50;90.30
68480;DHT22;55469;48.934;12.050;2023-04-03T00:34:49;9.50;90.30
68480;DHT22;55469;48.934;12.050;2023-04-03T00:37:15;9.50;90.20
68480;DHT22;55469;48.934;12.050;2023-04-03T00:39:41;9.50;90.20
68480;DHT22;55469;48.934;12.050;2023-04-03T00:42:07;9.50;90.10
68480;DHT22;55469;48.934;12.050;2023-04-03T00:46:58;9.50;90.10
68480;DHT22;55469;48.934;12.050;2023-04-03T00:49:24;9.50;90.10
68480;DHT22;55469;48.934;12.050;2023-04-03T00:51:51;9.50;90.10
68480;DHT22;55469;48.934;12.050;2023-04-03T00:54:17;9.40;90.10
68480;DHT22;55469;48.934;12.050;2023-04-03T00:56:45;9.40;90.10
68480;DHT22;55469;48.934;12.050;2023-04-03T00:59:27;9.40;90.00
68480;DHT22;55469;48.934;12.050;2023-04-03T01:01:59;9.40;90.10
68480;DHT22;55469;48.934;12.050;2023-04-03T01:04:37;9.40;90.10
68480;DHT22;55469;48.934;12.050;2023-04-03T01:07:08;9.40;90.00
68480;DHT22;55469;48.934;12.050;2023-04-03T01:09:38;9.40;90.00
68480;DHT22;55469;48.934;12.050;2023-04-03T01:12:21;9.40;90.00
68480;DHT22;55469;48.934;12.050;2023-04-03T01:14:50;9.30;90.00
68480;DHT22;55469;48.934;12.050;2023-04-03T01:22:59;9.30;90.10
68480;DHT22;55469;48.934;12.050;2023-04-03T01:25:36;9.30;90.00
68480;DHT22;55469;48.934;12.050;2023-04-03T01:28:09;9.30;90.10
68480;DHT22;55469;48.934;12.050;2023-04-03T01:30:43;9.30;90.10
68480;DHT22;55469;48.934;12.050;2023-04-03T01:33:29;9.20;90.10
68480;DHT22;55469;48.934;12.050;2023-04-03T01:35:55;9.20;90.10
68480;DHT22;55469;48.934;12.050;2023-04-03T01:38:21;9.20;90.00
68480;DHT22;55469;48.934;12.050;2023-04-03T01:40:47;9.20;90.10
68480;DHT22;55469;48.934;12.050;2023-04-03T01:43:13;9.20;89.80
68480;DHT22;55469;48.934;12.050;2023-04-03T01:45:38;9.10;90.10
68480;DHT22;55469;48.934;12.050;2023-04-03T01:48:04;9.10;90.00
68480;DHT22;55469;48.934;12.050;2023-04-03T01:50:30;9.20;90.10
68480;DHT22;55469;48.934;12.050;2023-04-03T01:52:57;9.10;90.00
68480;DHT22;55469;48.934;12.050;2023-04-03T01:55:23;9.10;89.90
68480;DHT22;55469;48.934;12.050;2023-04-03T01:57:48;9.10;90.10
68480;DHT22;55469;48.934;12.050;2023-04-03T02:00:14;9.10;90.10
68480;DHT22;55469;48.934;12.050;2023-04-03T02:02:40;9.10;90.00
68480;DHT22;55469;48.934;12.050;2023-04-03T02:05:06;9.10;90.00
68480;DHT22;55469;48.934;12.050;2023-04-03T02:07:32;9.10;90.00
68480;DHT22;55469;48.934;12.050;2023-04-03T02:09:58;9.00;89.90
68480;DHT22;55469;48.934;12.050;2023-04-03T02:12:24;9.00;90.00
68480;DHT22;55469;48.934;12.050;2023-04-03T02:14:50;9.00;89.90
68480;DHT22;55469;48.934;12.050;2023-04-03T02:17:15;9.00;90.00
68480;DHT22;55469;48.934;12.050;2023-04-03T02:19:41;9.00;90.00
68480;DHT22;55469;48.934;12.050;2023-04-03T02:22:07;9.00;90.10
68480;DHT22;55469;48.934;12.050;2023-04-03T02:24:33;8.90;90.10
68480;DHT22;55469;48.934;12.050;2023-04-03T02:26:59;8.90;90.10
68480;DHT22;55469;48.934;12.050;2023-04-03T02:29:25;8.90;90.10
68480;DHT22;55469;48.934;12.050;2023-04-03T02:31:51;8.90;90.10
68480;DHT22;55469;48.934;12.050;2023-04-03T02:34:17;8.90;90.10
68480;DHT22;55469;48.934;12.050;2023-04-03T02:36:43;8.90;90.10
68480;DHT22;55469;48.934;12.050;2023-04-03T02:39:09;8.90;90.00
68480;DHT22;55469;48.934;12.050;2023-04-03T02:41:35;8.90;90.10
68480;DHT22;55469;48.934;12.050;2023-04-03T02:44:02;8.80;90.10
68480;DHT22;55469;48.934;12.050;2023-04-03T02:46:29;8.80;90.10
68480;DHT22;55469;48.934;12.050;2023-04-03T02:48:56;8.80;90.20
68480;DHT22;55469;48.934;12.050;2023-04-03T02:51:22;8.80;90.20
68480;DHT22;55469;48.934;12.050;2023-04-03T02:53:48;8.80;90.20
68480;DHT22;55469;48.934;12.050;2023-04-03T02:56:16;8.80;90.20
68480;DHT22;55469;48.934;12.050;2023-04-03T02:58:44;8.70;90.10
68480;DHT22;55469;48.934;12.050;2023-04-03T03:01:11;8.70;90.00
68480;DHT22;55469;48.934;12.050;2023-04-03T03:03:37;8.70;90.10
68480;DHT22;55469;48.934;12.050;2023-04-03T03:06:09;8.70;90.00
68480;DHT22;55469;48.934;12.050;2023-04-03T03:08:36;8.70;90.10
68480;DHT22;55469;48.934;12.050;2023-04-03T03:11:03;8.70;90.00
68480;DHT22;55469;48.934;12.050;2023-04-03T03:13:29;8.70;90.10
68480;DHT22;55469;48.934;12.050;2023-04-03T03:15:55;8.70;90.10
68480;DHT22;55469;48.934;12.050;2023-04-03T03:18:23;8.70;90.10
68480;DHT22;55469;48.934;12.050;2023-04-03T03:20:53;8.60;90.00
68480;DHT22;55469;48.934;12.050;2023-04-03T03:23:20;8.60;90.00
68480;DHT22;55469;48.934;12.050;2023-04-03T03:25:46;8.60;90.00
68480;DHT22;55469;48.934;12.050;2023-04-03T03:28:12;8.60;90.00
68480;DHT22;55469;48.934;12.050;2023-04-03T03:30:38;8.60;90.10
68480;DHT22;55469;48.934;12.050;2023-04-03T03:33:03;8.60;90.00
68480;DHT22;55469;48.934;12.050;2023-04-03T03:35:29;8.60;90.00
68480;DHT22;55469;48.934;12.050;2023-04-03T03:37:55;8.60;90.10
68480;DHT22;55469;48.934;12.050;2023-04-03T03:40:21;8.50;89.90
68480;DHT22;55469;48.934;12.050;2023-04-03T03:42:46;8.50;90.00
68480;DHT22;55469;48.934;12.050;2023-04-03T03:45:12;8.50;90.00
68480;DHT22;55469;48.934;12.050;2023-04-03T03:47:38;8.50;90.00
68480;DHT22;55469;48.934;12.050;2023-04-03T03:50:04;8.50;90.00
68480;DHT22;55469;48.934;12.050;2023-04-03T03:52:30;8.50;90.00
68480;DHT22;55469;48.934;12.050;2023-04-03T03:54:56;8.50;90.00
68480;DHT22;55469;48.934;12.050;2023-04-03T03:57:22;8.50;90.00
68480;DHT22;55469;48.934;12.050;2023-04-03T03:59:48;8.50;90.00
68480;DHT22;55469;48.934;12.050;2023-04-03T04:02:14;8.40;90.00
68480;DHT22;55469;48.934;12.050;2023-04-03T04:04:43;8.40;89.90
68480;DHT22;55469;48.934;12.050;2023-04-03T04:07:08;8.40;90.00
68480;DHT22;55469;48.934;12.050;2023-04-03T04:09:34;8.40;89.80
68480;DHT22;55469;48.934;12.050;2023-04-03T04:12:00;8.30;90.00
68480;DHT22;55469;48.934;12.050;2023-04-03T04:14:26;8.30;89.80
68480;DHT22;55469;48.934;12.050;2023-04-03T04:16:51;8.30;90.00
68480;DHT22;55469;48.934;12.050;2023-04-03T04:19:17;8.30;89.80
68480;DHT22;55469;48.934;12.050;2023-04-03T04:21:43;8.30;90.00
68480;DHT22;55469;48.934;12.050;2023-04-03T04:24:09;8.30;90.00
68480;DHT22;55469;48.934;12.050;2023-04-03T04:26:34;8.30;89.90
68480;DHT22;55469;48.934;12.050;2023-04-03T04:29:00;8.30;90.00
68480;DHT22;55469;48.934;12.050;2023-04-03T04:31:26;8.30;90.00
68480;DHT22;55469;48.934;12.050;2023-04-03T04:33:52;8.30;90.00
68480;DHT22;55469;48.934;12.050;2023-04-03T04:36:18;8.30;89.90
68480;DHT22;55469;48.934;12.050;2023-04-03T04:38:45;8.20;90.00
68480;DHT22;55469;48.934;12.050;2023-04-03T04:41:11;8.20;89.80
68480;DHT22;55469;48.934;12.050;2023-04-03T04:43:36;8.20;90.00
68480;DHT22;55469;48.934;12.050;2023-04-03T04:46:07;8.20;90.00
68480;DHT22;55469;48.934;12.050;2023-04-03T04:48:35;8.20;90.00
68480;DHT22;55469;48.934;12.050;2023-04-03T04:51:01;8.10;90.00
68480;DHT22;55469;48.934;12.050;2023-04-03T04:53:27;8.10;90.00
68480;DHT22;55469;48.934;12.050;2023-04-03T04:55:53;8.10;90.00
68480;DHT22;55469;48.934;12.050;2023-04-03T04:58:19;8.10;90.00
68480;DHT22;55469;48.934;12.050;2023-04-03T05:00:46;8.10;90.40
68480;DHT22;55469;48.934;12.050;2023-04-03T05:03:12;8.00;89.90
68480;DHT22;55469;48.934;12.050;2023-04-03T05:05:38;8.00;90.30
68480;DHT22;55469;48.934;12.050;2023-04-03T05:08:04;8.00;90.00
68480;DHT22;55469;48.934;12.050;2023-04-03T05:10:31;8.00;90.00
68480;DHT22;55469;48.934;12.050;2023-04-03T05:12:57;8.00;90.10
68480;DHT22;55469;48.934;12.050;2023-04-03T05:15:23;8.00;89.80
68480;DHT22;55469;48.934;12.050;2023-04-03T05:17:49;8.00;90.00
68480;DHT22;55469;48.934;12.050;2023-04-03T05:20:16;8.00;90.00
68480;DHT22;55469;48.934;12.050;2023-04-03T05:22:42;8.00;90.00
68480;DHT22;55469;48.934;12.050;2023-04-03T05:25:08;8.00;90.00
68480;DHT22;55469;48.934;12.050;2023-04-03T05:27:34;8.00;89.90
68480;DHT22;55469;48.934;12.050;2023-04-03T05:30:00;7.90;89.90
68480;DHT22;55469;48.934;12.050;2023-04-03T05:32:26;7.90;90.00
68480;DHT22;55469;48.934;12.050;2023-04-03T05:34:53;7.90;89.60
68480;DHT22;55469;48.934;12.050;2023-04-03T05:37:19;7.90;90.00
68480;DHT22;55469;48.934;12.050;2023-04-03T05:39:45;7.90;90.00
68480;DHT22;55469;48.934;12.050;2023-04-03T05:42:11;7.90;90.00
68480;DHT22;55469;48.934;12.050;2023-04-03T05:44:38;7.90;90.00
68480;DHT22;55469;48.934;12.050;2023-04-03T05:47:04;7.90;90.00
68480;DHT22;55469;48.934;12.050;2023-04-03T05:49:30;7.90;89.80
68480;DHT22;55469;48.934;12.050;2023-04-03T05:51:56;7.90;90.00
68480;DHT22;55469;48.934;12.050;2023-04-03T05:54:25;7.90;89.60
68480;DHT22;55469;48.934;12.050;2023-04-03T05:56:52;7.90;90.40
68480;DHT22;55469;48.934;12.050;2023-04-03T05:59:19;7.90;89.80
68480;DHT22;55469;48.934;12.050;2023-04-03T06:01:45;7.90;89.90
68480;DHT22;55469;48.934;12.050;2023-04-03T06:04:11;7.90;89.80
68480;DHT22;55469;48.934;12.050;2023-04-03T06:09:14;7.90;89.90
68480;DHT22;55469;48.934;12.050;2023-04-03T06:11:41;7.90;89.70
68480;DHT22;55469;48.934;12.050;2023-04-03T06:14:07;7.90;89.80
68480;DHT22;55469;48.934;12.050;2023-04-03T06:16:33;7.90;89.00
68480;DHT22;55469;48.934;12.050;2023-04-03T06:18:59;7.90;88.50
68480;DHT22;55469;48.934;12.050;2023-04-03T06:21:25;7.90;88.20
68480;DHT22;55469;48.934;12.050;2023-04-03T06:23:51;7.90;88.00
68480;DHT22;55469;48.934;12.050;2023-04-03T06:26:17;7.90;88.50
68480;DHT22;55469;48.934;12.050;2023-04-03T06:28:43;8.00;88.60
68480;DHT22;55469;48.934;12.050;2023-04-03T06:31:09;8.00;88.70
68480;DHT22;55469;48.934;12.050;2023-04-03T06:33:35;8.10;88.50
68480;DHT22;55469;48.934;12.050;2023-04-03T06:36:04;8.10;88.80
68480;DHT22;55469;48.934;12.050;2023-04-03T06:38:31;8.20;89.10
68480;DHT22;55469;48.934;12.050;2023-04-03T06:41:00;8.30;90.00
68480;DHT22;55469;48.934;12.050;2023-04-03T06:43:26;8.60;88.90
68480;DHT22;55469;48.934;12.050;2023-04-03T06:45:51;8.80;88.10
68480;DHT22;55469;48.934;12.050;2023-04-03T06:48:17;9.00;87.70
68480;DHT22;55469;48.934;12.050;2023-04-03T06:50:43;9.10;87.80
68480;DHT22;55469;48.934;12.050;2023-04-03T06:53:10;9.20;88.00
68480;DHT22;55469;48.934;12.050;2023-04-03T06:55:36;9.30;87.90
68480;DHT22;55469;48.934;12.050;2023-04-03T06:58:02;9.50;88.20
68480;DHT22;55469;48.934;12.050;2023-04-03T07:00:29;9.70;87.20
68480;DHT22;55469;48.934;12.050;2023-04-03T07:02:55;9.90;86.50
68480;DHT22;55469;48.934;12.050;2023-04-03T07:05:23;10.00;86.50
68480;DHT22;55469;48.934;12.050;2023-04-03T07:07:50;10.10;86.90
68480;DHT22;55469;48.934;12.050;2023-04-03T07:10:17;10.20;88.20
68480;DHT22;55469;48.934;12.050;2023-04-03T07:12:42;10.40;84.80
68480;DHT22;55469;48.934;12.050;2023-04-03T07:15:09;10.50;84.60
68480;DHT22;55469;48.934;12.050;2023-04-03T07:17:36;10.60;84.50
68480;DHT22;55469;48.934;12.050;2023-04-03T07:20:03;10.60;84.00
68480;DHT22;55469;48.934;12.050;2023-04-03T07:22:29;10.60;83.90
68480;DHT22;55469;48.934;12.050;2023-04-03T07:24:55;10.70;84.20
68480;DHT22;55469;48.934;12.050;2023-04-03T07:27:20;10.70;83.40
68480;DHT22;55469;48.934;12.050;2023-04-03T07:29:46;10.70;83.30
68480;DHT22;55469;48.934;12.050;2023-04-03T07:32:14;10.80;83.10
68480;DHT22;55469;48.934;12.050;2023-04-03T07:34:40;10.80;82.80
68480;DHT22;55469;48.934;12.050;2023-04-03T07:37:06;10.90;82.60
68480;DHT22;55469;48.934;12.050;2023-04-03T07:39:34;11.00;83.70
68480;DHT22;55469;48.934;12.050;2023-04-03T07:42:00;11.10;83.70
68480;DHT22;55469;48.934;12.050;2023-04-03T07:44:27;11.20;84.00
68480;DHT22;55469;48.934;12.050;2023-04-03T07:46:54;11.20;83.00
68480;DHT22;55469;48.934;12.050;2023-04-03T07:49:23;11.30;83.50
68480;DHT22;55469;48.934;12.050;2023-04-03T07:51:49;11.30;82.60
68480;DHT22;55469;48.934;12.050;2023-04-03T07:54:15;11.30;81.80
68480;DHT22;55469;48.934;12.050;2023-04-03T07:56:41;11.40;81.70
68480;DHT22;55469;48.934;12.050;2023-04-03T07:59:08;11.50;80.90
68480;DHT22;55469;48.934;12.050;2023-04-03T08:01:35;11.50;80.90
68480;DHT22;55469;48.934;12.050;2023-04-03T08:04:01;11.60;79.30
68480;DHT22;55469;48.934;12.050;2023-04-03T08:06:27;11.40;81.60
68480;DHT22;55469;48.934;12.050;2023-04-03T08:08:55;11.30;80.20
68480;DHT22;55469;48.934;12.050;2023-04-03T08:11:21;11.10;80.00
68480;DHT22;55469;48.934;12.050;2023-04-03T08:13:47;10.90;79.60
68480;DHT22;55469;48.934;12.050;2023-04-03T08:16:18;10.70;81.20
68480;DHT22;55469;48.934;12.050;2023-04-03T08:18:45;10.50;82.10
68480;DHT22;55469;48.934;12.050;2023-04-03T08:21:12;10.40;82.60
68480;DHT22;55469;48.934;12.050;2023-04-03T08:23:39;10.30;83.40
68480;DHT22;55469;48.934;12.050;2023-04-03T08:26:13;10.20;82.40
68480;DHT22;55469;48.934;12.050;2023-04-03T08:28:40;10.10;82.90
68480;DHT22;55469;48.934;12.050;2023-04-03T08:31:09;10.10;84.30
68480;DHT22;55469;48.934;12.050;2023-04-03T08:33:37;10.00;84.40
68480;DHT22;55469;48.934;12.050;2023-04-03T08:36:07;10.00;84.70
68480;DHT22;55469;48.934;12.050;2023-04-03T08:38:34;10.00;84.40
68480;DHT22;55469;48.934;12.050;2023-04-03T08:44:03;10.00;82.20
68480;DHT22;55469;48.934;12.050;2023-04-03T08:46:42;9.90;82.30
68480;DHT22;55469;48.934;12.050;2023-04-03T08:49:45;9.90;82.30
68480;DHT22;55469;48.934;12.050;2023-04-03T08:55:55;9.80;83.10
68480;DHT22;55469;48.934;12.050;2023-04-03T08:58:29;9.80;83.90
68480;DHT22;55469;48.934;12.050;2023-04-03T09:01:00;9.70;84.10
68480;DHT22;55469;48.934;12.050;2023-04-03T09:03:31;9.70;83.60
68480;DHT22;55469;48.934;12.050;2023-04-03T09:12:12;9.60;83.90
68480;DHT22;55469;48.934;12.050;2023-04-03T09:17:15;9.60;83.50
68480;DHT22;55469;48.934;12.050;2023-04-03T09:26:03;9.50;84.20
68480;DHT22;55469;48.934;12.050;2023-04-03T09:28:34;9.50;84.50
68480;DHT22;55469;48.934;12.050;2023-04-03T09:31:17;9.50;84.40
68480;DHT22;55469;48.934;12.050;2023-04-03T09:33:46;9.50;84.40
68480;DHT22;55469;48.934;12.050;2023-04-03T09:36:42;9.50;83.70
68480;DHT22;55469;48.934;12.050;2023-04-03T09:39:52;9.50;84.90
68480;DHT22;55469;48.934;12.050;2023-04-03T09:42:22;9.50;84.60
68480;DHT22;55469;48.934;12.050;2023-04-03T09:44:59;9.50;83.90
68480;DHT22;55469;48.934;12.050;2023-04-03T09:47:29;9.60;83.40
68480;DHT22;55469;48.934;12.050;2023-04-03T09:50:19;9.60;83.00
68480;DHT22;55469;48.934;12.050;2023-04-03T09:52:48;9.70;82.20
68480;DHT22;55469;48.934;12.050;2023-04-03T09:55:20;9.70;82.20
68480;DHT22;55469;48.934;12.050;2023-04-03T09:58:24;9.70;82.20
68480;DHT22;55469;48.934;12.050;2023-04-03T10:01:00;9.80;83.30
68480;DHT22;55469;48.934;12.050;2023-04-03T10:03:31;9.70;83.40
68480;DHT22;55469;48.934;12.050;2023-04-03T10:06:00;9.70;83.00
68480;DHT22;55469;48.934;12.050;2023-04-03T10:08:29;9.80;83.20
68480;DHT22;55469;48.934;12.050;2023-04-03T10:11:15;9.80;80.90
68480;DHT22;55469;48.934;12.050;2023-04-03T10:14:00;9.70;82.20
68480;DHT22;55469;48.934;12.050;2023-04-03T10:22:54;9.70;78.20
68480;DHT22;55469;48.934;12.050;2023-04-03T10:25:55;9.70;78.90
68480;DHT22;55469;48.934;12.050;2023-04-03T10:31:33;9.80;72.10
68480;DHT22;55469;48.934;12.050;2023-04-03T10:34:31;9.60;75.00
68480;DHT22;55469;48.934;12.050;2023-04-03T10:40:02;9.60;76.60
68480;DHT22;55469;48.934;12.050;2023-04-03T10:42:52;9.70;77.80
68480;DHT22;55469;48.934;12.050;2023-04-03T10:45:31;9.70;78.20
68480;DHT22;55469;48.934;12.050;2023-04-03T10:51:37;9.70;78.80
68480;DHT22;55469;48.934;12.050;2023-04-03T10:57:11;9.80;78.60
68480;DHT22;55469;48.934;12.050;2023-04-03T10:59:47;9.90;78.80
68480;DHT22;55469;48.934;12.050;2023-04-03T11:07:37;10.00;77.30
68480;DHT22;55469;48.934;12.050;2023-04-03T11:10:12;10.00;78.50
68480;DHT22;55469;48.934;12.050;2023-04-03T11:13:02;10.00;78.20
68480;DHT22;55469;48.934;12.050;2023-04-03T11:15:33;10.00;78.50
68480;DHT22;55469;48.934;12.050;2023-04-03T11:18:08;10.00;78.50
68480;DHT22;55469;48.934;12.050;2023-04-03T11:20:42;10.10;78.10
68480;DHT22;55469;48.934;12.050;2023-04-03T11:23:25;10.10;76.90
68480;DHT22;55469;48.934;12.050;2023-04-03T11:25:57;10.10;77.10
68480;DHT22;55469;48.934;12.050;2023-04-03T11:28:30;10.20;76.40
68480;DHT22;55469;48.934;12.050;2023-04-03T11:33:55;10.40;77.10
68480;DHT22;55469;48.934;12.050;2023-04-03T11:36:30;10.40;77.50
68480;DHT22;55469;48.934;12.050;2023-04-03T11:39:01;10.40;77.10
68480;DHT22;55469;48.934;12.050;2023-04-03T11:41:35;10.40;77.50
68480;DHT22;55469;48.934;12.050;2023-04-03T11:44:04;10.50;77.70
68480;DHT22;55469;48.934;12.050;2023-04-03T11:46:52;10.50;77.80
68480;DHT22;55469;48.934;12.050;2023-04-03T11:49:57;10.50;78.20
68480;DHT22;55469;48.934;12.050;2023-04-03T12:08:25;10.50;76.50
68480;DHT22;55469;48.934;12.050;2023-04-03T12:16:27;10.50;77.70
68480;DHT22;55469;48.934;12.050;2023-04-03T12:18:54;10.50;77.30
68480;DHT22;55469;48.934;12.050;2023-04-03T12:47:27;10.50;78.60
68480;DHT22;55469;48.934;12.050;2023-04-03T12:49:54;10.60;78.50
68480;DHT22;55469;48.934;12.050;2023-04-03T12:52:49;10.60;78.60
68480;DHT22;55469;48.934;12.050;2023-04-03T12:55:20;10.60;78.00
68480;DHT22;55469;48.934;12.050;2023-04-03T12:57:46;10.50;77.80
68480;DHT22;55469;48.934;12.050;2023-04-03T13:00:33;10.60;77.20
68480;DHT22;55469;48.934;12.050;2023-04-03T13:03:05;10.60;77.60
68480;DHT22;55469;48.934;12.050;2023-04-03T13:05:32;10.60;77.80
68480;DHT22;55469;48.934;12.050;2023-04-03T13:08:05;10.60;77.70
68480;DHT22;55469;48.934;12.050;2023-04-03T13:10:55;10.70;77.70
68480;DHT22;55469;48.934;12.050;2023-04-03T13:13:24;10.80;78.00
68480;DHT22;55469;48.934;12.050;2023-04-03T13:15:54;10.80;78.10
68480;DHT22;55469;48.934;12.050;2023-04-03T13:18:34;10.80;78.20
68480;DHT22;55469;48.934;12.050;2023-04-03T13:21:14;10.70;78.30
68480;DHT22;55469;48.934;12.050;2023-04-03T13:23:44;10.70;78.20
68480;DHT22;55469;48.934;12.050;2023-04-03T13:26:11;10.70;77.90
68480;DHT22;55469;48.934;12.050;2023-04-03T13:28:39;10.70;78.30
68480;DHT22;55469;48.934;12.050;2023-04-03T13:33:52;10.70;78.00
68480;DHT22;55469;48.934;12.050;2023-04-03T13:36:34;10.80;79.20
68480;DHT22;55469;48.934;12.050;2023-04-03T13:41:39;10.80;78.80
68480;DHT22;55469;48.934;12.050;2023-04-03T13:50:31;10.70;78.00
68480;DHT22;55469;48.934;12.050;2023-04-03T13:56:37;10.90;77.80
68480;DHT22;55469;48.934;12.050;2023-04-03T13:59:02;10.90;77.50
68480;DHT22;55469;48.934;12.050;2023-04-03T14:04:21;11.00;77.50
68480;DHT22;55469;48.934;12.050;2023-04-03T14:06:52;11.00;77.60
68480;DHT22;55469;48.934;12.050;2023-04-03T14:09:19;11.00;78.00
68480;DHT22;55469;48.934;12.050;2023-04-03T14:11:47;11.00;78.20
68480;DHT22;55469;48.934;12.050;2023-04-03T14:14:21;11.00;78.50
68480;DHT22;55469;48.934;12.050;2023-04-03T14:16:55;11.00;78.20
68480;DHT22;55469;48.934;12.050;2023-04-03T14:19:33;11.10;78.00
68480;DHT22;55469;48.934;12.050;2023-04-03T14:22:06;11.10;77.90
68480;DHT22;55469;48.934;12.050;2023-04-03T14:24:39;11.10;77.50
68480;DHT22;55469;48.934;12.050;2023-04-03T14:27:19;11.10;77.70
68480;DHT22;55469;48.934;12.050;2023-04-03T14:29:48;11.10;78.80
68480;DHT22;55469;48.934;12.050;2023-04-03T14:32:16;11.20;77.70
68480;DHT22;55469;48.934;12.050;2023-04-03T14:34:45;11.20;77.70
68480;DHT22;55469;48.934;12.050;2023-04-03T14:37:18;11.20;77.80
68480;DHT22;55469;48.934;12.050;2023-04-03T14:39:47;11.10;77.90
68480;DHT22;55469;48.934;12.050;2023-04-03T14:42:24;11.10;78.00
68480;DHT22;55469;48.934;12.050;2023-04-03T14:44:52;11.20;78.00
68480;DHT22;55469;48.934;12.050;2023-04-03T14:47:21;11.20;77.70
68480;DHT22;55469;48.934;12.050;2023-04-03T14:49:48;11.30;77.20
68480;DHT22;55469;48.934;12.050;2023-04-03T14:52:40;11.30;76.70
68480;DHT22;55469;48.934;12.050;2023-04-03T14:55:06;11.20;76.90
68480;DHT22;55469;48.934;12.050;2023-04-03T14:57:32;11.20;77.20
68480;DHT22;55469;48.934;12.050;2023-04-03T14:59:58;11.20;77.60
68480;DHT22;55469;48.934;12.050;2023-04-03T15:02:29;11.30;77.80
68480;DHT22;55469;48.934;12.050;2023-04-03T15:04:57;11.20;78.80
68480;DHT22;55469;48.934;12.050;2023-04-03T15:07:25;11.20;77.90
68480;DHT22;55469;48.934;12.050;2023-04-03T15:09:53;11.20;78.00
68480;DHT22;55469;48.934;12.050;2023-04-03T15:12:22;11.20;78.20
68480;DHT22;55469;48.934;12.050;2023-04-03T15:14:48;11.20;78.00
68480;DHT22;55469;48.934;12.050;2023-04-03T15:17:16;11.20;77.60
68480;DHT22;55469;48.934;12.050;2023-04-03T15:19:43;11.20;77.40
68480;DHT22;55469;48.934;12.050;2023-04-03T15:22:17;11.30;77.40
68480;DHT22;55469;48.934;12.050;2023-04-03T15:24:44;11.40;76.80
68480;DHT22;55469;48.934;12.050;2023-04-03T15:27:11;11.50;75.90
68480;DHT22;55469;48.934;12.050;2023-04-03T15:29:39;11.60;76.00
68480;DHT22;55469;48.934;12.050;2023-04-03T15:32:06;11.70;75.80
68480;DHT22;55469;48.934;12.050;2023-04-03T15:34:32;11.70;75.80
68480;DHT22;55469;48.934;12.050;2023-04-03T15:36:58;11.70;76.00
68480;DHT22;55469;48.934;12.050;2023-04-03T15:39:25;11.70;75.80
68480;DHT22;55469;48.934;12.050;2023-04-03T15:41:51;11.70;75.80
68480;DHT22;55469;48.934;12.050;2023-04-03T15:44:17;11.70;76.00
68480;DHT22;55469;48.934;12.050;2023-04-03T15:46:45;11.80;75.80
68480;DHT22;55469;48.934;12.050;2023-04-03T15:49:12;11.80;75.80
68480;DHT22;55469;48.934;12.050;2023-04-03T15:51:38;11.70;76.00
68480;DHT22;55469;48.934;12.050;2023-04-03T15:54:04;11.60;76.20
68480;DHT22;55469;48.934;12.050;2023-04-03T15:56:30;11.50;76.50
68480;DHT22;55469;48.934;12.050;2023-04-03T15:58:56;11.50;76.90
68480;DHT22;55469;48.934;12.050;2023-04-03T16:01:21;11.50;77.00
68480;DHT22;55469;48.934;12.050;2023-04-03T16:03:47;11.40;77.00
68480;DHT22;55469;48.934;12.050;2023-04-03T16:06:14;11.40;77.20
68480;DHT22;55469;48.934;12.050;2023-04-03T16:08:41;11.40;77.30
68480;DHT22;55469;48.934;12.050;2023-04-03T16:11:08;11.50;77.40
68480;DHT22;55469;48.934;12.050;2023-04-03T16:13:34;11.50;77.00
68480;DHT22;55469;48.934;12.050;2023-04-03T16:16:00;11.50;76.60
68480;DHT22;55469;48.934;12.050;2023-04-03T16:18:28;11.40;76.70
68480;DHT22;55469;48.934;12.050;2023-04-03T16:20:54;11.50;76.60
68480;DHT22;55469;48.934;12.050;2023-04-03T16:23:20;11.60;76.30
68480;DHT22;55469;48.934;12.050;2023-04-03T16:25:46;11.70;76.20
68480;DHT22;55469;48.934;12.050;2023-04-03T16:28:13;11.70;76.10
68480;DHT22;55469;48.934;12.050;2023-04-03T16:30:41;11.80;76.00
68480;DHT22;55469;48.934;12.050;2023-04-03T16:33:08;11.80;76.10
68480;DHT22;55469;48.934;12.050;2023-04-03T16:35:34;11.80;76.00
68480;DHT22;55469;48.934;12.050;2023-04-03T16:38:00;11.80;75.80
68480;DHT22;55469;48.934;12.050;2023-04-03T16:40:26;11.80;76.90
68480;DHT22;55469;48.934;12.050;2023-04-03T16:42:52;11.80;75.70
68480;DHT22;55469;48.934;12.050;2023-04-03T16:45:18;11.90;75.80
68480;DHT22;55469;48.934;12.050;2023-04-03T16:47:44;11.90;75.70
68480;DHT22;55469;48.934;12.050;2023-04-03T16:50:10;11.90;75.60
68480;DHT22;55469;48.934;12.050;2023-04-03T16:52:36;11.80;75.70
68480;DHT22;55469;48.934;12.050;2023-04-03T16:55:02;11.80;75.90
68480;DHT22;55469;48.934;12.050;2023-04-03T16:57:28;11.70;76.00
68480;DHT22;55469;48.934;12.050;2023-04-03T16:59:54;11.60;75.80
68480;DHT22;55469;48.934;12.050;2023-04-03T17:02:21;11.50;76.00
68480;DHT22;55469;48.934;12.050;2023-04-03T17:04:50;11.50;77.30
68480;DHT22;55469;48.934;12.050;2023-04-03T17:07:18;11.50;76.50
68480;DHT22;55469;48.934;12.050;2023-04-03T17:09:45;11.40;76.50
68480;DHT22;55469;48.934;12.050;2023-04-03T17:12:11;11.30;76.80
68480;DHT22;55469;48.934;12.050;2023-04-03T17:14:37;11.30;76.70
68480;DHT22;55469;48.934;12.050;2023-04-03T17:17:03;11.30;76.90
68480;DHT22;55469;48.934;12.050;2023-04-03T17:19:29;11.20;77.10
68480;DHT22;55469;48.934;12.050;2023-04-03T17:21:56;11.20;77.20
68480;DHT22;55469;48.934;12.050;2023-04-03T17:24:23;11.10;77.20
68480;DHT22;55469;48.934;12.050;2023-04-03T17:26:49;11.10;77.40
68480;DHT22;55469;48.934;12.050;2023-04-03T17:29:15;11.10;77.50
68480;DHT22;55469;48.934;12.050;2023-04-03T17:31:40;11.00;77.50
68480;DHT22;55469;48.934;12.050;2023-04-03T17:34:06;11.00;77.60
68480;DHT22;55469;48.934;12.050;2023-04-03T17:36:33;11.00;77.80
68480;DHT22;55469;48.934;12.050;2023-04-03T17:38:59;10.90;77.70
68480;DHT22;55469;48.934;12.050;2023-04-03T17:41:25;10.90;77.90